Time;durP1;ratioP1;P1;durP2;ratioP2;P2;SDS_P1;SDS_P2;PMS_P1;PMS_P2;Temp;Humidity;BMP_temperature;BMP_pressure;BME280_temperature;BME280_humidity;BME280_pressure;Samples;Min_cycle;Max_cycle;Signal;HPM_P1;HPM_P2
2023/08/13 00:00:39;;;;;;;4.43;2.10;;;;;;;18.66;100.00;100776.84;8375120;28;20441;-61
2023/08/13 00:04:39;;;;;;;7.18;2.85;;;;;;;18.74;100.00;100760.34;8379684;28;20132;-59
2023/08/13 00:08:40;;;;;;;6.20;2.28;;;;;;;18.78;100.00;100763.53;8379325;28;20040;-59
2023/08/13 00:12:40;;;;;;;4.78;1.92;;;;;;;18.84;100.00;100769.13;8377802;28;20037;-60
2023/08/13 00:16:41;;;;;;;4.50;2.13;;;;;;;18.83;100.00;100761.09;8377530;28;20044;-59
2023/08/13 00:20:42;;;;;;;6.43;2.45;;;;;;;18.87;100.00;100762.41;8377341;28;20430;-59
2023/08/13 00:24:42;;;;;;;7.95;2.50;;;;;;;18.67;100.00;100761.25;8379276;28;20036;-59
2023/08/13 00:28:43;;;;;;;6.15;2.15;;;;;;;18.60;100.00;100766.63;8380756;28;20036;-58
2023/08/13 00:32:43;;;;;;;5.55;2.28;;;;;;;18.66;100.00;100776.84;8374104;28;20033;-58
2023/08/13 00:36:44;;;;;;;5.18;1.73;;;;;;;18.82;100.00;100776.66;8378488;28;20143;-58
2023/08/13 00:40:44;;;;;;;9.20;2.30;;;;;;;18.80;100.00;100778.75;8374191;28;20527;-59
2023/08/13 00:44:45;;;;;;;6.22;2.10;;;;;;;18.77;100.00;100776.41;8376909;28;20506;-60
2023/08/13 00:48:46;;;;;;;5.85;2.20;;;;;;;18.84;100.00;100785.56;8377695;28;20509;-59
2023/08/13 00:52:47;;;;;;;4.00;1.95;;;;;;;18.84;100.00;100779.22;8373180;28;20405;-59
2023/08/13 00:56:51;;;;;;;6.45;2.00;;;;;;;18.79;100.00;100781.69;8378276;28;20063;-59
2023/08/13 01:00:52;;;;;;;4.97;2.17;;;;;;;18.69;100.00;100776.47;8372779;28;20052;-59
2023/08/13 01:04:52;;;;;;;4.90;1.80;;;;;;;18.38;100.00;100767.53;8377326;28;20036;-59
2023/08/13 01:09:05;;;;;;;7.43;2.00;;;;;;;18.36;100.00;100780.50;8375741;28;20032;-60
2023/08/13 01:13:30;;;;;;;6.70;2.15;;;;;;;18.47;100.00;100781.97;8375355;28;20399;-59
2023/08/13 01:17:33;;;;;;;4.47;2.30;;;;;;;18.47;100.00;100788.31;8376095;28;20044;-59
2023/08/13 01:21:34;;;;;;;5.53;2.38;;;;;;;18.34;100.00;100799.03;8375129;28;20044;-60
2023/08/13 01:25:35;;;;;;;7.82;2.08;;;;;;;18.23;100.00;100796.69;8378410;28;20036;-60
2023/08/13 01:29:59;;;;;;;5.43;2.00;;;;;;;17.92;100.00;100786.84;8375428;28;20449;-60
2023/08/13 01:34:02;;;;;;;5.47;1.95;;;;;;;17.79;100.00;100792.91;8375011;28;20388;-59
2023/08/13 01:38:04;;;;;;;7.60;2.45;;;;;;;17.65;100.00;100790.94;8375833;28;20495;-59
2023/08/13 01:42:06;;;;;;;4.28;2.22;;;;;;;17.67;100.00;100794.34;8375012;28;20036;-59
2023/08/13 01:46:06;;;;;;;4.07;2.10;;;;;;;17.59;100.00;100786.19;8375466;28;20450;-59
2023/08/13 01:50:07;;;;;;;6.28;2.47;;;;;;;17.47;100.00;100790.34;8372706;28;20525;-59
2023/08/13 01:54:08;;;;;;;10.70;2.10;;;;;;;17.43;100.00;100786.28;8372072;28;20037;-60
2023/08/13 01:58:10;;;;;;;4.18;2.17;;;;;;;17.43;100.00;100799.94;8375878;28;20041;-60
2023/08/13 02:02:10;;;;;;;2.95;2.28;;;;;;;17.53;100.00;100792.34;8371805;28;20042;-59
2023/08/13 02:06:11;;;;;;;7.85;2.60;;;;;;;17.48;100.00;100794.81;8374576;28;20498;-59
2023/08/13 02:10:12;;;;;;;9.70;2.45;;;;;;;17.46;100.00;100785.91;8373725;28;20438;-59
2023/08/13 02:14:12;;;;;;;5.95;2.67;;;;;;;17.50;100.00;100792.72;8374483;28;20041;-59
2023/08/13 02:18:13;;;;;;;7.28;2.47;;;;;;;17.44;100.00;100782.50;8374809;28;20052;-59
2023/08/13 02:22:13;;;;;;;8.40;2.17;;;;;;;17.38;100.00;100783.16;8374580;28;20040;-59
2023/08/13 02:26:14;;;;;;;5.05;1.83;;;;;;;17.08;100.00;100776.63;8375011;28;20087;-59
2023/08/13 02:30:15;;;;;;;10.48;2.63;;;;;;;16.84;100.00;100784.91;8374955;28;20111;-59
2023/08/13 02:34:15;;;;;;;7.75;2.65;;;;;;;16.65;100.00;100779.00;8373181;28;20043;-59
2023/08/13 02:38:15;;;;;;;8.82;2.70;;;;;;;16.80;100.00;100778.09;8373058;28;20538;-59
2023/08/13 02:42:16;;;;;;;7.10;2.35;;;;;;;16.84;100.00;100782.16;8372921;28;20079;-59
2023/08/13 02:46:21;;;;;;;7.85;3.70;;;;;;;16.75;100.00;100782.38;8375104;28;20037;-59
2023/08/13 02:50:21;;;;;;;8.52;2.60;;;;;;;16.71;100.00;100770.94;8371259;28;20091;-59
2023/08/13 02:54:22;;;;;;;4.90;2.22;;;;;;;16.81;100.00;100778.94;8371661;28;20044;-59
2023/08/13 02:58:22;;;;;;;3.63;2.05;;;;;;;16.81;100.00;100781.69;8373782;28;20517;-59
2023/08/13 03:02:23;;;;;;;5.85;2.55;;;;;;;16.88;100.00;100778.06;8375584;28;20518;-59
2023/08/13 03:06:25;;;;;;;5.75;2.55;;;;;;;16.58;100.00;100781.53;8375983;28;20047;-59
2023/08/13 03:10:25;;;;;;;11.25;2.88;;;;;;;16.51;100.00;100776.94;8372274;28;20094;-59
2023/08/13 03:14:26;;;;;;;4.85;2.63;;;;;;;16.50;100.00;100777.97;8373572;28;20037;-59
2023/08/13 03:18:26;;;;;;;3.88;2.38;;;;;;;16.36;100.00;100771.31;8372043;28;20398;-58
2023/08/13 03:22:29;;;;;;;6.57;2.80;;;;;;;16.35;100.00;100771.47;8373654;28;20060;-59
2023/08/13 03:26:30;;;;;;;7.57;3.28;;;;;;;16.44;100.00;100781.41;8372416;28;20330;-59
2023/08/13 03:30:31;;;;;;;4.47;2.85;;;;;;;16.48;100.00;100771.81;8371591;28;20460;-59
2023/08/13 03:34:32;;;;;;;9.02;3.03;;;;;;;16.39;100.00;100773.69;8372139;28;20040;-59
2023/08/13 03:38:33;;;;;;;7.03;3.33;;;;;;;16.38;100.00;100782.03;8371952;28;20081;-60
2023/08/13 03:42:33;;;;;;;5.35;3.00;;;;;;;16.33;100.00;100777.09;8372843;28;20472;-59
2023/08/13 03:46:34;;;;;;;12.80;3.20;;;;;;;16.28;100.00;100776.75;8373528;28;20094;-59
2023/08/13 03:50:34;;;;;;;7.10;3.30;;;;;;;16.22;100.00;100779.34;8372629;28;20474;-59
2023/08/13 03:54:35;;;;;;;8.80;3.28;;;;;;;16.04;100.00;100778.63;8369930;28;20044;-58
2023/08/13 03:58:35;;;;;;;6.88;3.22;;;;;;;16.03;100.00;100776.91;8373430;28;20068;-59
2023/08/13 04:02:39;;;;;;;10.07;3.05;;;;;;;16.01;100.00;100784.44;8368570;28;20037;-59
2023/08/13 04:06:39;;;;;;;5.45;2.90;;;;;;;15.98;100.00;100784.75;8373469;28;20111;-59
2023/08/13 04:10:40;;;;;;;7.88;2.92;;;;;;;16.03;100.00;100793.28;8371784;28;20086;-60
2023/08/13 04:14:40;;;;;;;7.75;2.78;;;;;;;16.06;100.00;100788.34;8371549;28;20043;-59
2023/08/13 04:18:41;;;;;;;9.93;3.00;;;;;;;16.04;100.00;100792.28;8371514;28;20036;-59
2023/08/13 04:22:41;;;;;;;7.97;2.75;;;;;;;15.96;100.00;100797.69;8372509;28;20059;-59
2023/08/13 04:26:42;;;;;;;5.68;3.03;;;;;;;15.77;100.00;100799.72;8377138;28;20568;-59
2023/08/13 04:30:44;;;;;;;5.15;2.92;;;;;;;15.68;100.00;100800.72;8375017;28;20043;-59
2023/08/13 04:34:44;;;;;;;7.22;2.70;;;;;;;15.57;100.00;100760.16;8378706;28;20040;-59
2023/08/13 04:38:45;;;;;;;7.13;2.60;;;;;;;15.72;100.00;100790.34;8377882;28;20131;-59
2023/08/13 04:42:45;;;;;;;10.23;3.28;;;;;;;15.88;100.00;100800.41;8376696;28;20040;-59
2023/08/13 04:46:46;;;;;;;5.53;3.38;;;;;;;15.79;100.00;100795.97;8376845;28;20032;-59
2023/08/13 04:50:47;;;;;;;6.55;2.53;;;;;;;15.81;100.00;100788.47;8377725;28;20037;-59
2023/08/13 04:54:48;;;;;;;8.05;3.45;;;;;;;15.90;100.00;100787.47;8374879;28;20131;-59
2023/08/13 04:58:48;;;;;;;5.93;2.67;;;;;;;15.85;100.00;100795.31;8376878;28;20055;-59
2023/08/13 05:02:50;;;;;;;6.95;3.00;;;;;;;15.96;100.00;100787.66;8374633;28;20084;-59
2023/08/13 05:06:51;;;;;;;14.50;3.47;;;;;;;16.07;100.00;100791.94;8377701;28;20032;-59
2023/08/13 05:10:52;;;;;;;9.40;3.30;;;;;;;16.19;100.00;100798.75;8375811;28;20040;-58
2023/08/13 05:14:52;;;;;;;6.28;3.00;;;;;;;16.29;100.00;100802.16;8376123;28;20052;-59
2023/08/13 05:18:54;;;;;;;9.63;3.00;;;;;;;16.34;100.00;100792.44;8376529;28;20045;-59
2023/08/13 05:22:54;;;;;;;7.55;2.70;;;;;;;16.46;100.00;100792.97;8376967;28;20040;-59
2023/08/13 05:26:55;;;;;;;6.30;2.53;;;;;;;16.41;100.00;100793.44;8376124;28;20463;-59
2023/08/13 05:30:56;;;;;;;8.10;2.78;;;;;;;16.49;100.00;100795.34;8373152;28;20036;-59
2023/08/13 05:34:58;;;;;;;6.03;2.33;;;;;;;16.91;100.00;100791.38;8376725;28;20040;-59
2023/08/13 05:39:00;;;;;;;6.32;2.95;;;;;;;17.10;100.00;100795.59;8366429;28;20151;-58
2023/08/13 05:43:01;;;;;;;7.78;2.55;;;;;;;17.24;100.00;100792.13;8375231;28;20039;-59
2023/08/13 05:47:03;;;;;;;5.35;2.30;;;;;;;17.45;100.00;100800.63;8375902;28;20040;-58
2023/08/13 05:51:05;;;;;;;9.13;2.70;;;;;;;17.43;100.00;100805.41;8375268;28;20066;-59
2023/08/13 05:55:06;;;;;;;5.50;2.33;;;;;;;17.50;100.00;100803.66;8372120;28;20503;-61
2023/08/13 05:59:06;;;;;;;6.22;3.05;;;;;;;17.55;100.00;100801.25;8375471;28;20045;-60
2023/08/13 06:03:07;;;;;;;6.13;2.10;;;;;;;17.60;100.00;100793.38;8372744;28;20036;-60
2023/08/13 06:07:07;;;;;;;5.43;2.38;;;;;;;17.61;100.00;100797.81;8374196;28;20040;-60
2023/08/13 06:11:08;;;;;;;8.48;2.30;;;;;;;17.70;100.00;100804.94;8373501;28;20041;-60
2023/08/13 06:15:09;;;;;;;8.27;2.38;;;;;;;17.87;100.00;100800.22;8374549;28;20406;-60
2023/08/13 06:19:10;;;;;;;6.32;2.85;;;;;;;18.16;100.00;100803.09;8374655;28;20430;-60
2023/08/13 06:23:10;;;;;;;4.88;2.42;;;;;;;18.44;100.00;100802.38;8373358;28;20037;-60
2023/08/13 06:27:11;;;;;;;6.90;2.38;;;;;;;18.59;100.00;100799.66;8374774;28;20033;-60
2023/08/13 06:31:11;;;;;;;8.48;2.50;;;;;;;18.64;100.00;100795.38;8371332;28;20707;-61
2023/08/13 06:35:12;;;;;;;7.28;2.10;;;;;;;18.73;100.00;100798.88;8367342;28;20128;-60
2023/08/13 06:39:13;;;;;;;6.72;2.38;;;;;;;18.78;100.00;100789.03;8384626;28;20098;-60
2023/08/13 06:43:14;;;;;;;8.98;2.00;;;;;;;19.12;100.00;100789.34;8361129;28;20028;-59
2023/08/13 06:47:15;;;;;;;6.45;2.40;;;;;;;19.30;100.00;100797.22;8368458;28;20153;-59
2023/08/13 06:51:15;;;;;;;5.65;2.20;;;;;;;19.63;100.00;100793.03;8373701;28;20037;-59
2023/08/13 06:55:16;;;;;;;6.20;2.42;;;;;;;20.03;100.00;100799.84;8373097;28;20039;-58
2023/08/13 06:59:16;;;;;;;7.63;2.50;;;;;;;20.04;100.00;100796.03;8373821;28;20048;-59
2023/08/13 07:03:17;;;;;;;4.30;1.92;;;;;;;20.31;100.00;100787.06;8371166;28;20044;-60
2023/08/13 07:07:17;;;;;;;5.78;2.00;;;;;;;20.06;100.00;100791.22;8373102;28;20123;-61
2023/08/13 07:11:18;;;;;;;3.78;1.85;;;;;;;20.02;100.00;100789.88;8372403;28;20514;-60
2023/08/13 07:15:18;;;;;;;7.97;2.00;;;;;;;20.33;100.00;100791.31;8373476;28;20945;-61
2023/08/13 07:19:19;;;;;;;11.00;2.40;;;;;;;20.52;100.00;100789.81;8375946;28;20052;-60
2023/08/13 07:23:19;;;;;;;3.45;1.63;;;;;;;20.52;100.00;100789.81;8393205;28;20399;-61
2023/08/13 07:27:20;;;;;;;5.38;1.80;;;;;;;20.90;100.00;100800.25;8372113;28;20486;-60
2023/08/13 07:31:20;;;;;;;5.18;1.98;;;;;;;21.30;100.00;100793.13;8371309;28;20036;-60
2023/08/13 07:35:21;;;;;;;11.32;1.75;;;;;;;21.30;98.91;100795.88;8372361;28;20032;-61
2023/08/13 07:39:22;;;;;;;3.15;1.50;;;;;;;21.52;98.54;100797.47;8369827;27;20122;-61
2023/08/13 07:43:24;;;;;;;9.68;1.42;;;;;;;21.54;94.98;100800.03;8400443;28;20045;-61
2023/08/13 07:47:24;;;;;;;5.72;1.65;;;;;;;21.62;92.56;100806.19;8373164;28;20089;-61
2023/08/13 07:51:25;;;;;;;5.18;1.33;;;;;;;21.77;94.38;100795.94;8372906;28;20049;-61
2023/08/13 07:55:25;;;;;;;6.15;1.67;;;;;;;21.99;91.70;100797.47;8374984;28;20048;-59
2023/08/13 07:59:26;;;;;;;3.90;1.30;;;;;;;22.26;90.20;100798.41;8376192;28;20047;-61
2023/08/13 08:03:26;;;;;;;5.75;1.50;;;;;;;22.35;85.67;100797.97;8378099;28;20043;-60
2023/08/13 08:07:27;;;;;;;6.25;1.40;;;;;;;22.27;86.93;100792.69;8378248;28;20044;-61
2023/08/13 08:11:31;;;;;;;5.88;1.38;;;;;;;22.40;88.15;100784.44;8378813;28;20086;-59
2023/08/13 08:15:34;;;;;;;5.30;1.48;;;;;;;22.52;87.23;100788.28;8372978;28;20044;-60
2023/08/13 08:19:34;;;;;;;4.10;1.42;;;;;;;22.67;88.45;100790.84;8379985;28;20498;-59
2023/08/13 08:23:35;;;;;;;4.35;1.25;;;;;;;22.87;84.29;100787.00;8377269;28;20410;-59
2023/08/13 08:27:39;;;;;;;6.47;1.58;;;;;;;22.79;84.87;100795.50;8368283;28;20131;-59
2023/08/13 08:31:39;;;;;;;;;;;;;;;22.68;81.97;100793.38;8360486;28;20045;-61
2023/08/13 08:35:40;;;;;;;6.88;1.30;;;;;;;22.82;82.76;100789.56;8344116;28;20371;-62
2023/08/13 08:39:41;;;;;;;5.55;1.15;;;;;;;23.05;78.25;100792.72;8363247;28;20045;-62
2023/08/13 08:43:42;;;;;;;7.35;1.00;;;;;;;23.47;78.15;100794.13;8343568;28;20079;-61
2023/08/13 08:47:47;;;;;;;7.00;1.35;;;;;;;23.35;77.91;100784.81;8345056;28;20037;-61
2023/08/13 08:51:50;;;;;;;5.45;1.40;;;;;;;23.25;77.88;100784.44;8339393;28;20040;-58
2023/08/13 08:55:52;;;;;;;3.47;0.90;;;;;;;23.38;78.75;100775.25;8342750;28;20040;-59
2023/08/13 08:59:53;;;;;;;6.55;1.33;;;;;;;23.58;74.53;100781.56;8345606;28;20103;-60
2023/08/13 09:03:54;;;;;;;6.05;1.23;;;;;;;23.69;72.51;100770.66;8341290;28;20190;-60
2023/08/13 09:07:55;;;;;;;8.77;1.10;;;;;;;23.55;73.42;100773.72;8337168;28;20113;-59
2023/08/13 09:11:56;;;;;;;10.63;1.08;;;;;;;23.11;74.97;100769.78;8367037;28;20042;-60
2023/08/13 09:15:57;;;;;;;6.88;1.17;;;;;;;23.00;76.38;100766.84;8342062;28;20072;-59
2023/08/13 09:19:57;;;;;;;5.90;1.17;;;;;;;23.37;74.55;100763.38;8344004;28;20052;-59
2023/08/13 09:23:58;;;;;;;6.32;1.20;;;;;;;23.67;73.30;100755.41;8321393;28;20045;-62
2023/08/13 09:27:58;;;;;;;9.68;1.30;;;;;;;23.87;72.06;100745.09;8340779;28;20045;-62
2023/08/13 09:32:00;;;;;;;3.95;1.20;;;;;;;24.04;73.16;100738.00;8338741;28;20139;-62
2023/08/13 09:36:01;;;;;;;4.57;1.23;;;;;;;23.97;72.02;100720.63;8341026;28;20064;-59
2023/08/13 09:40:01;;;;;;;3.22;0.88;;;;;;;24.11;73.62;100725.84;8339942;28;20112;-58
2023/08/13 09:44:09;;;;;;;5.30;1.08;;;;;;;24.30;69.85;100730.38;8340388;28;20029;-59
2023/08/13 09:48:13;;;;;;;9.07;1.20;;;;;;;24.39;70.34;100733.69;8341550;28;20036;-60
2023/08/13 09:52:19;;;;;;;5.90;1.17;;;;;;;24.75;69.13;100728.31;8343841;28;20076;-59
2023/08/13 09:56:21;;;;;;;10.73;1.55;;;;;;;25.03;67.87;100723.97;8340255;28;20041;-59
2023/08/13 10:00:22;;;;;;;5.65;1.00;;;;;;;26.07;64.48;100712.69;8339872;28;20052;-59
2023/08/13 10:04:24;;;;;;;4.68;1.77;;;;;;;25.75;65.83;100720.34;8340656;28;20075;-59
2023/08/13 10:08:25;;;;;;;4.40;1.65;;;;;;;25.72;65.11;100726.38;8339077;28;20091;-60
2023/08/13 10:12:26;;;;;;;7.47;1.63;;;;;;;25.58;66.94;100724.00;8341469;28;20057;-57
2023/08/13 10:16:27;;;;;;;6.80;1.48;;;;;;;25.47;67.92;100706.25;8343165;28;20048;-58
2023/08/13 10:20:27;;;;;;;6.45;1.10;;;;;;;25.99;66.98;100702.78;8339036;28;20041;-59
2023/08/13 10:24:30;;;;;;;10.23;1.55;;;;;;;25.16;70.35;100703.63;8360754;28;20068;-59
2023/08/13 10:28:31;;;;;;;7.95;2.13;;;;;;;25.11;70.62;100694.31;8372917;28;20044;-59
2023/08/13 10:32:32;;;;;;;6.53;1.42;;;;;;;24.85;71.35;100685.22;8369739;28;20045;-59
2023/08/13 10:36:53;;;;;;;5.00;1.67;;;;;;;24.70;72.40;100697.75;8370783;28;20508;-60
2023/08/13 10:40:59;;;;;;;7.82;2.15;;;;;;;24.50;74.48;100691.50;8373312;28;20045;-60
2023/08/13 10:45:03;;;;;;;6.05;1.63;;;;;;;24.34;74.27;100687.38;8373667;28;20431;-59
2023/08/13 10:49:04;;;;;;;5.22;1.60;;;;;;;24.45;75.09;100683.03;8370489;28;20037;-60
2023/08/13 10:53:09;;;;;;;8.52;1.90;;;;;;;24.57;75.34;100675.69;8368995;28;20067;-60
2023/08/13 10:57:10;;;;;;;6.50;1.92;;;;;;;24.90;74.03;100690.94;8371893;28;20037;-60
2023/08/13 11:01:16;;;;;;;4.18;1.63;;;;;;;24.88;74.00;100684.78;8372284;28;20071;-60
2023/08/13 11:05:17;;;;;;;6.05;1.60;;;;;;;25.40;73.80;100672.25;8368979;28;20090;-60
2023/08/13 11:09:17;;;;;;;7.03;1.83;;;;;;;25.97;70.79;100660.56;8369150;28;20526;-60
2023/08/13 11:13:19;;;;;;;4.47;1.92;;;;;;;25.47;72.56;100667.50;8370653;28;20116;-60
2023/08/13 11:17:19;;;;;;;7.20;2.55;;;;;;;25.26;73.49;100670.72;8371622;28;20494;-62
2023/08/13 11:21:20;;;;;;;3.70;1.40;;;;;;;25.68;72.63;100675.25;8369765;28;20041;-62
2023/08/13 11:25:20;;;;;;;6.35;2.13;;;;;;;25.72;73.05;100654.34;8366118;28;20120;-62
2023/08/13 11:29:21;;;;;;;4.47;1.60;;;;;;;25.61;73.60;100666.22;8365180;28;20510;-62
2023/08/13 11:33:22;;;;;;;4.72;1.73;;;;;;;25.45;72.75;100664.09;8397270;28;20033;-60
2023/08/13 11:37:23;;;;;;;6.03;1.25;;;;;;;25.55;71.29;100652.47;8375355;28;20124;-60
2023/08/13 11:41:23;;;;;;;6.03;1.27;;;;;;;25.69;70.65;100660.34;8375367;28;20037;-60
2023/08/13 11:45:25;;;;;;;2.90;1.20;;;;;;;25.72;69.02;100659.88;8378161;28;20419;-59
2023/08/13 11:49:26;;;;;;;10.45;1.40;;;;;;;25.87;68.09;100651.13;8376888;28;20043;-60
2023/08/13 11:53:26;;;;;;;3.10;1.27;;;;;;;26.55;65.22;100639.31;8372393;28;20450;-60
2023/08/13 11:57:27;;;;;;;4.57;1.15;;;;;;;27.01;64.76;100649.53;8375720;28;20040;-60
2023/08/13 17:02:23;;;;;;;6.63;1.85;;;;;;;24.99;64.01;100519.91;8329975;27;20764;-63
2023/08/13 17:06:24;;;;;;;8.00;1.55;;;;;;;25.03;64.41;100510.06;8329434;28;20036;-63
2023/08/13 17:10:24;;;;;;;5.75;1.55;;;;;;;25.01;63.52;100520.53;8328320;28;20124;-62
2023/08/13 17:14:24;;;;;;;4.65;2.20;;;;;;;24.98;64.98;100523.78;8329778;28;20040;-63
2023/08/13 17:18:25;;;;;;;5.10;1.73;;;;;;;24.96;65.35;100525.91;8330745;28;20034;-62
2023/08/13 17:22:26;;;;;;;3.97;2.20;;;;;;;24.91;64.90;100528.53;8327141;28;20310;-63
2023/08/13 17:26:26;;;;;;;5.47;2.15;;;;;;;24.84;64.24;100525.00;8327847;28;20037;-63
2023/08/13 17:30:27;;;;;;;4.22;1.70;;;;;;;24.62;64.42;100534.84;8332376;28;20502;-62
2023/08/13 17:34:27;;;;;;;4.10;2.40;;;;;;;24.51;64.08;100533.69;8331822;28;20462;-59
2023/08/13 17:38:28;;;;;;;5.45;1.70;;;;;;;24.50;64.55;100536.69;8331296;28;20041;-59
2023/08/13 17:42:28;;;;;;;3.42;1.30;;;;;;;24.72;65.19;100524.09;8332054;28;20048;-60
2023/08/13 17:46:29;;;;;;;2.83;1.15;;;;;;;24.51;64.22;100527.31;8332534;28;20064;-63
2023/08/13 17:50:29;;;;;;;5.18;1.40;;;;;;;24.43;62.83;100519.34;8332680;28;20160;-63
2023/08/13 17:54:29;;;;;;;3.67;1.50;;;;;;;24.35;63.03;100525.16;8331997;28;20038;-63
2023/08/13 17:58:30;;;;;;;3.00;1.20;;;;;;;24.19;64.45;100528.53;8331740;28;20288;-63
2023/08/13 18:02:30;;;;;;;4.30;1.48;;;;;;;24.08;65.21;100530.13;8331313;28;20051;-63
2023/08/13 18:06:31;;;;;;;3.15;1.30;;;;;;;23.99;65.01;100533.41;8330866;28;20163;-63
2023/08/13 18:10:31;;;;;;;4.20;1.48;;;;;;;23.91;65.08;100539.19;8326194;28;20052;-63
2023/08/13 18:14:32;;;;;;;3.08;1.45;;;;;;;23.82;65.60;100543.31;8309500;28;20049;-62
2023/08/13 18:18:32;;;;;;;6.05;1.30;;;;;;;23.68;66.00;100548.09;8309804;28;20099;-63
2023/08/13 18:22:33;;;;;;;3.75;1.27;;;;;;;23.55;67.06;100539.06;8307732;28;20049;-62
2023/08/13 18:26:33;;;;;;;3.67;1.20;;;;;;;23.41;66.82;100540.22;8308411;28;20462;-63
2023/08/13 18:30:34;;;;;;;2.97;2.08;;;;;;;23.28;67.17;100541.19;8307330;28;20044;-62
2023/08/13 18:34:34;;;;;;;4.72;2.55;;;;;;;23.17;67.58;100537.19;8308640;28;20034;-62
2023/08/13 18:38:35;;;;;;;5.80;1.38;;;;;;;23.08;68.22;100541.25;8306709;28;20045;-62
2023/08/13 18:42:37;;;;;;;3.97;1.80;;;;;;;22.96;68.48;100554.06;8307249;28;20188;-62
2023/08/13 18:46:37;;;;;;;4.13;2.00;;;;;;;22.76;69.34;100546.94;8305224;28;20064;-62
2023/08/13 18:50:38;;;;;;;3.85;1.50;;;;;;;22.67;71.30;100549.09;8302704;28;20045;-62
2023/08/13 18:54:39;;;;;;;6.63;1.40;;;;;;;22.46;72.43;100545.75;8290568;28;20049;-63
2023/08/13 18:58:39;;;;;;;3.03;1.27;;;;;;;22.17;76.17;100558.09;8302165;28;20056;-63
2023/08/13 19:02:40;;;;;;;6.32;1.48;;;;;;;21.88;75.42;100553.06;8305001;28;20132;-62
2023/08/13 19:06:40;;;;;;;5.53;3.67;;;;;;;21.79;75.92;100548.81;8305870;28;20041;-62
2023/08/13 19:10:44;;;;;;;6.32;2.40;;;;;;;21.67;77.69;100549.63;8305315;28;20152;-62
2023/08/13 19:14:45;;;;;;;6.05;1.63;;;;;;;21.59;80.65;100561.69;8295685;28;20539;-59
2023/08/13 19:18:45;;;;;;;7.00;1.73;;;;;;;21.18;82.75;100567.34;8304612;28;20550;-59
2023/08/13 19:22:46;;;;;;;4.97;1.30;;;;;;;20.88;87.73;100559.59;8300888;28;20503;-58
2023/08/13 19:26:46;;;;;;;12.48;10.48;;;;;;;20.91;86.62;100567.44;8287621;28;20084;-63
2023/08/13 19:30:47;;;;;;;8.18;3.65;;;;;;;20.97;86.19;100575.75;8275786;28;20048;-63
2023/08/13 19:34:47;;;;;;;4.90;1.50;;;;;;;21.01;85.05;100577.03;8305120;28;20042;-62
2023/08/13 19:38:48;;;;;;;5.53;1.67;;;;;;;20.91;86.20;100581.19;8304169;28;20066;-62
2023/08/13 19:42:48;;;;;;;5.50;1.30;;;;;;;20.76;86.17;100585.97;8305175;28;20057;-63
2023/08/13 19:46:49;;;;;;;4.00;1.98;;;;;;;20.85;83.46;100587.50;8306677;28;20148;-62
2023/08/13 19:50:52;;;;;;;6.00;1.90;;;;;;;21.06;82.24;100584.66;8305491;28;20048;-62
2023/08/13 19:54:52;;;;;;;5.68;1.33;;;;;;;20.84;84.50;100585.81;8305865;28;20124;-59
2023/08/13 19:58:54;;;;;;;6.68;1.70;;;;;;;20.35;90.60;100587.88;8304156;28;20538;-60
2023/08/13 20:02:54;;;;;;;6.30;1.40;;;;;;;20.14;90.49;100593.44;8294282;28;20033;-59
2023/08/13 20:06:55;;;;;;;5.30;1.70;;;;;;;20.24;86.34;100594.78;8304616;28;20069;-59
2023/08/13 20:10:55;;;;;;;5.45;1.42;;;;;;;20.44;82.89;100589.41;8300338;28;20042;-59
2023/08/13 20:14:56;;;;;;;4.80;1.67;;;;;;;20.52;83.96;100586.50;8306645;28;20399;-59
2023/08/13 20:18:56;;;;;;;5.97;1.65;;;;;;;19.96;88.98;100595.78;8306611;28;20053;-59
2023/08/13 20:22:57;;;;;;;5.50;1.40;;;;;;;19.48;94.21;100603.81;8300139;28;20065;-58
2023/08/13 20:26:57;;;;;;;6.45;1.85;;;;;;;19.14;95.42;100598.16;8321329;28;20034;-62
2023/08/13 20:30:57;;;;;;;8.07;1.80;;;;;;;19.11;97.45;100594.94;8299591;28;20088;-62
2023/08/13 20:34:58;;;;;;;10.73;1.90;;;;;;;19.14;97.78;100595.41;8297152;28;20041;-63
2023/08/13 20:38:59;;;;;;;8.57;2.08;;;;;;;19.10;97.53;100587.75;8298522;28;20410;-62
2023/08/13 20:43:00;;;;;;;6.63;1.73;;;;;;;19.21;97.39;100590.84;8298446;28;20044;-62
2023/08/13 20:47:00;;;;;;;11.65;2.30;;;;;;;19.18;98.42;100583.00;8297401;28;20045;-63
2023/08/13 20:51:01;;;;;;;7.15;1.80;;;;;;;18.85;100.00;100592.72;8299496;28;20498;-62
2023/08/13 20:55:02;;;;;;;5.95;1.55;;;;;;;18.53;100.00;100590.41;8295633;28;20037;-62
2023/08/13 20:59:03;;;;;;;9.20;1.40;;;;;;;18.38;100.00;100594.19;8296243;28;20038;-62
2023/08/13 21:03:04;;;;;;;5.85;1.75;;;;;;;18.26;100.00;100601.13;8292756;28;20407;-62
2023/08/13 21:07:05;;;;;;;6.60;2.38;;;;;;;18.49;100.00;100602.81;8294788;28;20070;-62
2023/08/13 21:11:05;;;;;;;2.90;1.95;;;;;;;18.32;100.00;100609.44;8298961;28;20100;-62
2023/08/13 21:15:06;;;;;;;9.25;1.80;;;;;;;18.44;100.00;100597.03;8295940;28;20061;-62
2023/08/13 21:19:06;;;;;;;7.65;1.77;;;;;;;18.35;100.00;100603.59;8272742;28;20133;-62
2023/08/13 21:23:07;;;;;;;3.03;1.73;;;;;;;18.46;100.00;100608.66;8289465;28;20061;-62
2023/08/13 21:27:07;;;;;;;3.95;1.83;;;;;;;18.64;100.00;100609.13;8292960;28;20492;-62
2023/08/13 21:31:08;;;;;;;4.18;1.70;;;;;;;18.75;99.49;100605.88;8297295;28;20092;-62
2023/08/13 21:35:09;;;;;;;6.60;1.98;;;;;;;18.48;100.00;100605.72;8295823;28;20460;-62
2023/08/13 21:39:09;;;;;;;5.78;2.25;;;;;;;18.12;100.00;100613.78;8294076;28;20046;-61
2023/08/13 21:43:10;;;;;;;5.70;2.00;;;;;;;18.11;100.00;100613.97;8292782;28;20052;-62
2023/08/13 21:47:10;;;;;;;6.22;1.80;;;;;;;18.16;100.00;100612.38;8295234;28;20034;-61
2023/08/13 21:51:11;;;;;;;6.75;1.80;;;;;;;18.17;100.00;100605.84;8298764;28;20068;-61
2023/08/13 21:55:11;;;;;;;5.88;2.15;;;;;;;18.07;100.00;100613.50;8298783;28;20475;-62
2023/08/13 21:59:11;;;;;;;5.78;1.73;;;;;;;17.97;100.00;100614.78;8297333;28;20096;-62
2023/08/13 22:03:14;;;;;;;9.85;2.67;;;;;;;18.08;100.00;100620.66;8297888;28;20046;-62
2023/08/13 22:07:14;;;;;;;7.78;1.98;;;;;;;17.54;100.00;100624.56;8297441;28;20037;-62
2023/08/13 22:11:15;;;;;;;5.53;2.08;;;;;;;17.34;100.00;100634.25;8299900;28;20048;-62
2023/08/13 22:15:15;;;;;;;9.40;1.92;;;;;;;17.21;100.00;100628.53;8306058;28;20049;-62
2023/08/13 22:19:16;;;;;;;9.55;2.08;;;;;;;17.25;100.00;100630.72;8305049;28;20129;-62
2023/08/13 22:23:17;;;;;;;4.82;1.67;;;;;;;17.29;100.00;100620.25;8305209;28;20041;-62
2023/08/13 22:27:17;;;;;;;8.60;2.22;;;;;;;17.59;100.00;100620.25;8302134;28;20034;-63
2023/08/13 22:31:18;;;;;;;8.18;2.50;;;;;;;17.83;100.00;100623.78;8302025;28;20042;-62
2023/08/13 22:35:19;;;;;;;6.65;1.95;;;;;;;17.86;100.00;100607.88;8303200;28;20048;-63
2023/08/13 22:39:19;;;;;;;9.95;2.22;;;;;;;17.58;100.00;100615.81;8303570;28;20042;-62
2023/08/13 22:43:21;;;;;;;4.25;1.95;;;;;;;17.07;100.00;100621.09;8308195;28;20061;-63
2023/08/13 22:47:21;;;;;;;8.57;2.08;;;;;;;17.05;100.00;100617.72;8305029;28;20486;-63
2023/08/13 22:51:22;;;;;;;3.47;1.83;;;;;;;16.87;100.00;100619.84;8302639;28;20439;-63
2023/08/13 22:55:22;;;;;;;5.55;2.13;;;;;;;16.95;100.00;100617.91;8303300;28;20037;-63
2023/08/13 22:59:23;;;;;;;5.28;2.20;;;;;;;17.01;100.00;100610.88;8301160;28;20129;-63
2023/08/13 23:03:26;;;;;;;5.20;2.10;;;;;;;17.11;100.00;100608.78;8299928;28;20398;-63
2023/08/13 23:07:27;;;;;;;4.50;1.97;;;;;;;17.16;100.00;100615.41;8302018;28;20033;-63
2023/08/13 23:11:27;;;;;;;5.32;2.15;;;;;;;17.04;100.00;100615.97;8301969;28;20292;-63
2023/08/13 23:15:28;;;;;;;6.13;1.90;;;;;;;17.02;100.00;100618.06;8304038;28;20144;-63
2023/08/13 23:19:28;;;;;;;3.05;1.98;;;;;;;16.99;100.00;100615.69;8300117;28;20049;-63
2023/08/13 23:23:28;;;;;;;5.55;2.20;;;;;;;16.66;100.00;100619.59;8298473;28;20046;-63
2023/08/13 23:27:29;;;;;;;7.00;1.88;;;;;;;16.65;100.00;100620.63;8303014;28;20038;-60
2023/08/13 23:31:30;;;;;;;6.82;2.55;;;;;;;16.58;100.00;100625.94;8301788;28;20366;-59